sensor_id;sensor_type;location;lat;lon;timestamp;P1;durP1;ratioP1;P2;durP2;ratioP2
28176;SDS011;15461;41.652;9.378;2022-08-14T00:01:20;16.25;;;9.75;;
28176;SDS011;15461;41.652;9.378;2022-08-14T00:03:47;24.20;;;10.52;;
28176;SDS011;15461;41.652;9.378;2022-08-14T00:06:12;16.45;;;9.65;;
28176;SDS011;15461;41.652;9.378;2022-08-14T00:08:38;12.93;;;9.52;;
28176;SDS011;15461;41.652;9.378;2022-08-14T00:11:04;18.90;;;10.27;;
28176;SDS011;15461;41.652;9.378;2022-08-14T00:13:30;12.25;;;10.07;;
28176;SDS011;15461;41.652;9.378;2022-08-14T00:15:57;15.15;;;10.07;;
28176;SDS011;15461;41.652;9.378;2022-08-14T00:18:25;11.18;;;9.13;;
28176;SDS011;15461;41.652;9.378;2022-08-14T00:20:52;14.30;;;10.35;;
28176;SDS011;15461;41.652;9.378;2022-08-14T00:23:19;17.13;;;9.40;;
28176;SDS011;15461;41.652;9.378;2022-08-14T00:25:54;16.30;;;10.07;;
28176;SDS011;15461;41.652;9.378;2022-08-14T00:28:21;16.48;;;9.90;;
28176;SDS011;15461;41.652;9.378;2022-08-14T00:30:57;12.05;;;9.65;;
28176;SDS011;15461;41.652;9.378;2022-08-14T00:33:24;16.38;;;9.77;;
28176;SDS011;15461;41.652;9.378;2022-08-14T00:35:51;12.15;;;9.60;;
28176;SDS011;15461;41.652;9.378;2022-08-14T00:38:18;13.32;;;9.18;;
28176;SDS011;15461;41.652;9.378;2022-08-14T00:40:45;13.55;;;9.77;;
28176;SDS011;15461;41.652;9.378;2022-08-14T00:43:12;14.68;;;9.57;;
28176;SDS011;15461;41.652;9.378;2022-08-14T00:45:38;13.55;;;9.52;;
28176;SDS011;15461;41.652;9.378;2022-08-14T00:48:05;10.52;;;9.23;;
28176;SDS011;15461;41.652;9.378;2022-08-14T00:50:30;14.38;;;9.07;;
28176;SDS011;15461;41.652;9.378;2022-08-14T00:52:57;12.57;;;9.05;;
28176;SDS011;15461;41.652;9.378;2022-08-14T00:55:28;15.18;;;9.23;;
28176;SDS011;15461;41.652;9.378;2022-08-14T00:57:55;20.02;;;10.13;;
28176;SDS011;15461;41.652;9.378;2022-08-14T01:00:41;12.48;;;9.35;;
28176;SDS011;15461;41.652;9.378;2022-08-14T01:03:08;14.88;;;9.65;;
28176;SDS011;15461;41.652;9.378;2022-08-14T01:05:34;14.25;;;10.15;;
28176;SDS011;15461;41.652;9.378;2022-08-14T01:08:01;13.90;;;9.98;;
28176;SDS011;15461;41.652;9.378;2022-08-14T01:10:28;16.00;;;9.90;;
28176;SDS011;15461;41.652;9.378;2022-08-14T01:13:14;10.80;;;9.70;;
28176;SDS011;15461;41.652;9.378;2022-08-14T01:15:45;12.65;;;9.98;;
28176;SDS011;15461;41.652;9.378;2022-08-14T01:18:12;13.77;;;9.57;;
28176;SDS011;15461;41.652;9.378;2022-08-14T01:20:57;16.30;;;9.85;;
28176;SDS011;15461;41.652;9.378;2022-08-14T01:23:40;16.80;;;9.63;;
28176;SDS011;15461;41.652;9.378;2022-08-14T01:26:11;16.38;;;10.27;;
28176;SDS011;15461;41.652;9.378;2022-08-14T01:28:40;16.73;;;10.48;;
28176;SDS011;15461;41.652;9.378;2022-08-14T01:31:10;12.23;;;10.40;;
28176;SDS011;15461;41.652;9.378;2022-08-14T01:33:40;11.75;;;9.60;;
28176;SDS011;15461;41.652;9.378;2022-08-14T01:36:09;14.25;;;10.13;;
28176;SDS011;15461;41.652;9.378;2022-08-14T01:38:36;11.38;;;10.05;;
28176;SDS011;15461;41.652;9.378;2022-08-14T01:41:04;13.65;;;10.27;;
28176;SDS011;15461;41.652;9.378;2022-08-14T01:43:32;11.98;;;10.77;;
28176;SDS011;15461;41.652;9.378;2022-08-14T01:46:07;15.82;;;10.38;;
28176;SDS011;15461;41.652;9.378;2022-08-14T01:48:36;18.40;;;11.20;;
28176;SDS011;15461;41.652;9.378;2022-08-14T01:51:06;16.05;;;10.80;;
28176;SDS011;15461;41.652;9.378;2022-08-14T01:53:32;12.85;;;9.73;;
28176;SDS011;15461;41.652;9.378;2022-08-14T01:55:58;18.90;;;9.75;;
28176;SDS011;15461;41.652;9.378;2022-08-14T01:58:29;15.75;;;10.18;;
28176;SDS011;15461;41.652;9.378;2022-08-14T02:00:55;18.38;;;10.40;;
28176;SDS011;15461;41.652;9.378;2022-08-14T02:03:23;12.00;;;10.32;;
28176;SDS011;15461;41.652;9.378;2022-08-14T02:05:52;16.88;;;10.02;;
28176;SDS011;15461;41.652;9.378;2022-08-14T02:08:24;16.75;;;10.48;;
28176;SDS011;15461;41.652;9.378;2022-08-14T02:10:52;12.95;;;9.50;;
28176;SDS011;15461;41.652;9.378;2022-08-14T02:13:38;15.07;;;9.95;;
28176;SDS011;15461;41.652;9.378;2022-08-14T02:16:05;12.80;;;9.55;;
28176;SDS011;15461;41.652;9.378;2022-08-14T02:18:31;15.38;;;9.05;;
28176;SDS011;15461;41.652;9.378;2022-08-14T02:20:57;14.38;;;9.20;;
28176;SDS011;15461;41.652;9.378;2022-08-14T02:23:23;13.30;;;8.93;;
28176;SDS011;15461;41.652;9.378;2022-08-14T02:25:49;17.83;;;9.15;;
28176;SDS011;15461;41.652;9.378;2022-08-14T02:28:15;13.25;;;8.98;;
28176;SDS011;15461;41.652;9.378;2022-08-14T02:30:41;10.60;;;8.27;;
28176;SDS011;15461;41.652;9.378;2022-08-14T02:33:08;13.30;;;8.73;;
28176;SDS011;15461;41.652;9.378;2022-08-14T02:35:34;9.80;;;8.63;;
28176;SDS011;15461;41.652;9.378;2022-08-14T02:38:04;13.40;;;9.10;;
28176;SDS011;15461;41.652;9.378;2022-08-14T02:40:30;11.15;;;8.43;;
28176;SDS011;15461;41.652;9.378;2022-08-14T02:42:58;16.50;;;9.07;;
28176;SDS011;15461;41.652;9.378;2022-08-14T02:45:24;14.68;;;8.55;;
28176;SDS011;15461;41.652;9.378;2022-08-14T02:47:53;12.45;;;8.25;;
28176;SDS011;15461;41.652;9.378;2022-08-14T02:50:19;10.52;;;8.60;;
28176;SDS011;15461;41.652;9.378;2022-08-14T02:52:45;9.93;;;8.80;;
28176;SDS011;15461;41.652;9.378;2022-08-14T02:55:11;13.45;;;8.50;;
28176;SDS011;15461;41.652;9.378;2022-08-14T02:57:37;10.25;;;9.07;;
28176;SDS011;15461;41.652;9.378;2022-08-14T03:00:04;17.80;;;8.70;;
28176;SDS011;15461;41.652;9.378;2022-08-14T03:02:31;13.02;;;8.52;;
28176;SDS011;15461;41.652;9.378;2022-08-14T03:04:59;12.13;;;9.25;;
28176;SDS011;15461;41.652;9.378;2022-08-14T03:07:25;11.77;;;8.90;;
28176;SDS011;15461;41.652;9.378;2022-08-14T03:09:50;13.38;;;8.70;;
28176;SDS011;15461;41.652;9.378;2022-08-14T03:12:16;18.52;;;8.77;;
28176;SDS011;15461;41.652;9.378;2022-08-14T03:14:45;11.15;;;7.75;;
28176;SDS011;15461;41.652;9.378;2022-08-14T03:17:14;12.05;;;8.68;;
28176;SDS011;15461;41.652;9.378;2022-08-14T03:19:40;11.85;;;8.48;;
28176;SDS011;15461;41.652;9.378;2022-08-14T03:22:06;10.60;;;8.48;;
28176;SDS011;15461;41.652;9.378;2022-08-14T03:24:32;14.00;;;8.52;;
28176;SDS011;15461;41.652;9.378;2022-08-14T03:27:00;11.93;;;8.45;;
28176;SDS011;15461;41.652;9.378;2022-08-14T03:29:25;11.85;;;8.57;;
28176;SDS011;15461;41.652;9.378;2022-08-14T03:31:53;9.23;;;8.18;;
28176;SDS011;15461;41.652;9.378;2022-08-14T03:34:20;13.10;;;8.75;;
28176;SDS011;15461;41.652;9.378;2022-08-14T03:36:49;11.38;;;7.65;;
28176;SDS011;15461;41.652;9.378;2022-08-14T03:39:22;14.60;;;7.57;;
28176;SDS011;15461;41.652;9.378;2022-08-14T03:41:49;15.68;;;7.90;;
28176;SDS011;15461;41.652;9.378;2022-08-14T03:44:16;9.13;;;7.57;;
28176;SDS011;15461;41.652;9.378;2022-08-14T03:46:43;16.27;;;8.00;;
28176;SDS011;15461;41.652;9.378;2022-08-14T03:49:09;9.77;;;7.72;;
28176;SDS011;15461;41.652;9.378;2022-08-14T03:51:35;14.98;;;7.70;;
28176;SDS011;15461;41.652;9.378;2022-08-14T03:54:05;9.32;;;7.53;;
28176;SDS011;15461;41.652;9.378;2022-08-14T03:56:36;12.93;;;8.30;;
28176;SDS011;15461;41.652;9.378;2022-08-14T03:59:05;10.95;;;7.95;;
28176;SDS011;15461;41.652;9.378;2022-08-14T04:01:34;9.40;;;7.68;;
28176;SDS011;15461;41.652;9.378;2022-08-14T04:04:04;11.23;;;7.55;;
28176;SDS011;15461;41.652;9.378;2022-08-14T04:06:31;11.20;;;7.57;;
28176;SDS011;15461;41.652;9.378;2022-08-14T04:08:57;8.90;;;8.00;;
28176;SDS011;15461;41.652;9.378;2022-08-14T04:11:24;9.70;;;7.45;;
28176;SDS011;15461;41.652;9.378;2022-08-14T04:13:49;13.45;;;6.85;;
28176;SDS011;15461;41.652;9.378;2022-08-14T04:16:17;17.15;;;7.22;;
28176;SDS011;15461;41.652;9.378;2022-08-14T04:18:48;12.77;;;7.85;;
28176;SDS011;15461;41.652;9.378;2022-08-14T04:21:17;10.70;;;7.60;;
28176;SDS011;15461;41.652;9.378;2022-08-14T04:23:45;9.30;;;8.02;;
28176;SDS011;15461;41.652;9.378;2022-08-14T04:26:13;11.85;;;7.82;;
28176;SDS011;15461;41.652;9.378;2022-08-14T04:28:42;9.88;;;7.55;;
28176;SDS011;15461;41.652;9.378;2022-08-14T04:31:08;10.73;;;7.40;;
28176;SDS011;15461;41.652;9.378;2022-08-14T04:33:34;10.85;;;7.50;;
28176;SDS011;15461;41.652;9.378;2022-08-14T04:36:00;9.02;;;7.43;;
28176;SDS011;15461;41.652;9.378;2022-08-14T04:38:27;10.93;;;7.28;;
28176;SDS011;15461;41.652;9.378;2022-08-14T04:41:12;9.98;;;7.10;;
28176;SDS011;15461;41.652;9.378;2022-08-14T04:43:56;8.50;;;7.20;;
28176;SDS011;15461;41.652;9.378;2022-08-14T04:46:22;7.97;;;7.18;;
28176;SDS011;15461;41.652;9.378;2022-08-14T04:48:49;8.82;;;7.00;;
28176;SDS011;15461;41.652;9.378;2022-08-14T04:51:20;12.57;;;7.50;;
28176;SDS011;15461;41.652;9.378;2022-08-14T04:53:51;14.98;;;7.60;;
28176;SDS011;15461;41.652;9.378;2022-08-14T04:56:19;12.55;;;7.78;;
28176;SDS011;15461;41.652;9.378;2022-08-14T04:58:50;9.85;;;6.93;;
28176;SDS011;15461;41.652;9.378;2022-08-14T05:01:23;10.93;;;7.22;;
28176;SDS011;15461;41.652;9.378;2022-08-14T05:03:50;12.93;;;6.70;;
28176;SDS011;15461;41.652;9.378;2022-08-14T05:06:17;7.28;;;6.50;;
28176;SDS011;15461;41.652;9.378;2022-08-14T05:08:43;11.80;;;7.18;;
28176;SDS011;15461;41.652;9.378;2022-08-14T05:11:09;12.02;;;7.03;;
28176;SDS011;15461;41.652;9.378;2022-08-14T05:13:36;8.50;;;6.85;;
28176;SDS011;15461;41.652;9.378;2022-08-14T05:16:04;12.18;;;6.45;;
28176;SDS011;15461;41.652;9.378;2022-08-14T05:18:35;7.03;;;4.97;;
28176;SDS011;15461;41.652;9.378;2022-08-14T05:21:05;6.18;;;4.60;;
28176;SDS011;15461;41.652;9.378;2022-08-14T05:23:33;11.48;;;5.07;;
28176;SDS011;15461;41.652;9.378;2022-08-14T05:26:01;8.50;;;4.15;;
28176;SDS011;15461;41.652;9.378;2022-08-14T05:28:29;5.95;;;4.40;;
28176;SDS011;15461;41.652;9.378;2022-08-14T05:31:00;9.70;;;4.20;;
28176;SDS011;15461;41.652;9.378;2022-08-14T05:33:28;5.82;;;3.70;;
28176;SDS011;15461;41.652;9.378;2022-08-14T05:35:58;7.53;;;3.40;;
28176;SDS011;15461;41.652;9.378;2022-08-14T05:38:28;5.70;;;4.15;;
28176;SDS011;15461;41.652;9.378;2022-08-14T05:41:07;7.70;;;4.13;;
28176;SDS011;15461;41.652;9.378;2022-08-14T05:43:35;15.90;;;4.38;;
28176;SDS011;15461;41.652;9.378;2022-08-14T05:46:03;9.00;;;3.20;;
28176;SDS011;15461;41.652;9.378;2022-08-14T05:48:29;4.93;;;3.20;;
28176;SDS011;15461;41.652;9.378;2022-08-14T05:50:55;15.52;;;4.90;;
28176;SDS011;15461;41.652;9.378;2022-08-14T05:53:25;15.68;;;5.32;;
28176;SDS011;15461;41.652;9.378;2022-08-14T05:55:51;5.78;;;3.55;;
28176;SDS011;15461;41.652;9.378;2022-08-14T05:58:19;7.78;;;3.83;;
28176;SDS011;15461;41.652;9.378;2022-08-14T06:00:46;15.23;;;4.80;;
28176;SDS011;15461;41.652;9.378;2022-08-14T06:03:18;12.80;;;3.80;;
28176;SDS011;15461;41.652;9.378;2022-08-14T06:05:46;23.50;;;5.50;;
28176;SDS011;15461;41.652;9.378;2022-08-14T06:08:27;30.92;;;5.93;;
28176;SDS011;15461;41.652;9.378;2022-08-14T06:10:57;15.80;;;4.73;;
28176;SDS011;15461;41.652;9.378;2022-08-14T06:13:28;7.63;;;3.30;;
28176;SDS011;15461;41.652;9.378;2022-08-14T06:15:56;5.95;;;3.08;;
28176;SDS011;15461;41.652;9.378;2022-08-14T06:18:23;8.45;;;3.38;;
28176;SDS011;15461;41.652;9.378;2022-08-14T06:20:49;4.88;;;3.20;;
28176;SDS011;15461;41.652;9.378;2022-08-14T06:23:15;5.95;;;2.80;;
28176;SDS011;15461;41.652;9.378;2022-08-14T06:25:41;10.85;;;2.88;;
28176;SDS011;15461;41.652;9.378;2022-08-14T06:28:30;8.35;;;2.70;;
28176;SDS011;15461;41.652;9.378;2022-08-14T06:30:55;3.95;;;2.97;;
28176;SDS011;15461;41.652;9.378;2022-08-14T06:33:21;4.70;;;2.72;;
28176;SDS011;15461;41.652;9.378;2022-08-14T06:35:47;5.15;;;2.80;;
28176;SDS011;15461;41.652;9.378;2022-08-14T06:38:14;5.88;;;3.00;;
28176;SDS011;15461;41.652;9.378;2022-08-14T06:40:42;6.43;;;2.67;;
28176;SDS011;15461;41.652;9.378;2022-08-14T06:43:09;4.13;;;2.70;;
28176;SDS011;15461;41.652;9.378;2022-08-14T06:45:37;6.05;;;3.10;;
28176;SDS011;15461;41.652;9.378;2022-08-14T06:48:12;6.10;;;2.60;;
28176;SDS011;15461;41.652;9.378;2022-08-14T06:50:39;2.85;;;2.53;;
28176;SDS011;15461;41.652;9.378;2022-08-14T06:53:05;4.85;;;2.53;;
28176;SDS011;15461;41.652;9.378;2022-08-14T06:55:31;7.40;;;2.80;;
28176;SDS011;15461;41.652;9.378;2022-08-14T06:57:57;6.43;;;2.80;;
28176;SDS011;15461;41.652;9.378;2022-08-14T07:00:26;8.18;;;2.97;;
28176;SDS011;15461;41.652;9.378;2022-08-14T07:02:53;4.13;;;2.30;;
28176;SDS011;15461;41.652;9.378;2022-08-14T07:05:38;4.45;;;2.47;;
28176;SDS011;15461;41.652;9.378;2022-08-14T07:10:42;3.78;;;2.40;;
28176;SDS011;15461;41.652;9.378;2022-08-14T07:13:13;3.60;;;2.40;;
28176;SDS011;15461;41.652;9.378;2022-08-14T07:15:40;3.00;;;2.20;;
28176;SDS011;15461;41.652;9.378;2022-08-14T07:18:07;3.90;;;2.60;;
28176;SDS011;15461;41.652;9.378;2022-08-14T07:20:33;3.67;;;2.47;;
28176;SDS011;15461;41.652;9.378;2022-08-14T07:23:04;4.50;;;2.72;;
28176;SDS011;15461;41.652;9.378;2022-08-14T07:25:31;3.25;;;2.33;;
28176;SDS011;15461;41.652;9.378;2022-08-14T07:27:57;3.03;;;2.45;;
28176;SDS011;15461;41.652;9.378;2022-08-14T07:30:23;3.00;;;2.30;;
28176;SDS011;15461;41.652;9.378;2022-08-14T07:32:49;4.35;;;2.20;;
28176;SDS011;15461;41.652;9.378;2022-08-14T07:35:16;3.58;;;2.38;;
28176;SDS011;15461;41.652;9.378;2022-08-14T07:37:42;3.53;;;2.70;;
28176;SDS011;15461;41.652;9.378;2022-08-14T07:40:11;4.75;;;2.42;;
28176;SDS011;15461;41.652;9.378;2022-08-14T07:42:37;3.90;;;2.70;;
28176;SDS011;15461;41.652;9.378;2022-08-14T07:45:03;5.78;;;2.50;;
28176;SDS011;15461;41.652;9.378;2022-08-14T07:47:29;3.00;;;2.40;;
28176;SDS011;15461;41.652;9.378;2022-08-14T07:50:05;3.22;;;2.50;;
28176;SDS011;15461;41.652;9.378;2022-08-14T07:52:42;3.85;;;2.47;;
28176;SDS011;15461;41.652;9.378;2022-08-14T07:55:10;6.47;;;3.13;;
28176;SDS011;15461;41.652;9.378;2022-08-14T07:57:38;3.50;;;2.40;;
28176;SDS011;15461;41.652;9.378;2022-08-14T08:00:06;2.72;;;2.45;;
28176;SDS011;15461;41.652;9.378;2022-08-14T08:02:41;8.25;;;2.60;;
28176;SDS011;15461;41.652;9.378;2022-08-14T08:05:09;6.32;;;2.90;;
28176;SDS011;15461;41.652;9.378;2022-08-14T08:07:37;3.15;;;2.50;;
28176;SDS011;15461;41.652;9.378;2022-08-14T08:10:10;4.97;;;2.50;;
28176;SDS011;15461;41.652;9.378;2022-08-14T08:12:55;7.85;;;2.92;;
28176;SDS011;15461;41.652;9.378;2022-08-14T08:15:29;4.97;;;2.83;;
28176;SDS011;15461;41.652;9.378;2022-08-14T08:17:58;4.22;;;2.72;;
28176;SDS011;15461;41.652;9.378;2022-08-14T08:20:26;5.55;;;2.80;;
28176;SDS011;15461;41.652;9.378;2022-08-14T08:22:53;4.53;;;2.63;;
28176;SDS011;15461;41.652;9.378;2022-08-14T08:25:23;4.00;;;2.45;;
28176;SDS011;15461;41.652;9.378;2022-08-14T08:28:32;5.20;;;2.97;;
28176;SDS011;15461;41.652;9.378;2022-08-14T08:30:56;7.78;;;2.55;;
28176;SDS011;15461;41.652;9.378;2022-08-14T08:33:25;3.42;;;2.63;;
28176;SDS011;15461;41.652;9.378;2022-08-14T08:35:59;4.95;;;2.70;;
28176;SDS011;15461;41.652;9.378;2022-08-14T08:38:28;6.15;;;2.72;;
28176;SDS011;15461;41.652;9.378;2022-08-14T08:40:55;4.07;;;2.83;;
28176;SDS011;15461;41.652;9.378;2022-08-14T08:43:27;6.63;;;2.70;;
28176;SDS011;15461;41.652;9.378;2022-08-14T08:48:30;6.35;;;3.30;;
28176;SDS011;15461;41.652;9.378;2022-08-14T08:51:18;3.45;;;2.63;;
28176;SDS011;15461;41.652;9.378;2022-08-14T08:58:59;6.63;;;2.80;;
28176;SDS011;15461;41.652;9.378;2022-08-14T09:01:28;5.95;;;2.58;;
28176;SDS011;15461;41.652;9.378;2022-08-14T09:06:28;3.13;;;2.50;;
28176;SDS011;15461;41.652;9.378;2022-08-14T09:08:54;5.85;;;2.60;;
28176;SDS011;15461;41.652;9.378;2022-08-14T09:11:22;4.03;;;2.70;;
28176;SDS011;15461;41.652;9.378;2022-08-14T09:13:49;4.25;;;2.85;;
28176;SDS011;15461;41.652;9.378;2022-08-14T09:16:25;5.72;;;2.60;;
28176;SDS011;15461;41.652;9.378;2022-08-14T09:18:51;6.03;;;2.60;;
28176;SDS011;15461;41.652;9.378;2022-08-14T09:21:17;4.88;;;2.55;;
28176;SDS011;15461;41.652;9.378;2022-08-14T09:23:44;5.60;;;3.00;;
28176;SDS011;15461;41.652;9.378;2022-08-14T09:26:10;6.75;;;3.15;;
28176;SDS011;15461;41.652;9.378;2022-08-14T09:28:36;3.88;;;2.40;;
28176;SDS011;15461;41.652;9.378;2022-08-14T09:31:02;9.05;;;2.60;;
28176;SDS011;15461;41.652;9.378;2022-08-14T09:33:37;4.07;;;2.50;;
28176;SDS011;15461;41.652;9.378;2022-08-14T09:36:36;7.60;;;3.20;;
28176;SDS011;15461;41.652;9.378;2022-08-14T09:47:48;4.80;;;2.95;;
28176;SDS011;15461;41.652;9.378;2022-08-14T09:52:51;4.07;;;2.47;;
28176;SDS011;15461;41.652;9.378;2022-08-14T09:55:28;5.25;;;2.38;;
28176;SDS011;15461;41.652;9.378;2022-08-14T09:58:14;4.15;;;2.70;;
28176;SDS011;15461;41.652;9.378;2022-08-14T10:00:43;5.63;;;2.38;;
28176;SDS011;15461;41.652;9.378;2022-08-14T10:03:09;3.55;;;2.20;;
28176;SDS011;15461;41.652;9.378;2022-08-14T10:05:35;6.57;;;2.47;;
28176;SDS011;15461;41.652;9.378;2022-08-14T10:08:03;2.88;;;2.20;;
28176;SDS011;15461;41.652;9.378;2022-08-14T10:12:58;4.60;;;2.33;;
28176;SDS011;15461;41.652;9.378;2022-08-14T10:15:27;4.15;;;2.33;;
28176;SDS011;15461;41.652;9.378;2022-08-14T10:18:05;6.05;;;2.30;;
28176;SDS011;15461;41.652;9.378;2022-08-14T10:20:35;5.70;;;2.42;;
28176;SDS011;15461;41.652;9.378;2022-08-14T10:23:13;5.15;;;2.28;;
28176;SDS011;15461;41.652;9.378;2022-08-14T10:25:45;4.90;;;2.30;;
28176;SDS011;15461;41.652;9.378;2022-08-14T10:28:20;5.57;;;2.20;;
28176;SDS011;15461;41.652;9.378;2022-08-14T10:30:47;3.53;;;2.13;;
28176;SDS011;15461;41.652;9.378;2022-08-14T10:33:25;2.97;;;2.08;;
28176;SDS011;15461;41.652;9.378;2022-08-14T10:35:54;4.25;;;2.70;;
28176;SDS011;15461;41.652;9.378;2022-08-14T10:43:37;7.57;;;2.35;;
28176;SDS011;15461;41.652;9.378;2022-08-14T10:46:11;9.30;;;2.22;;
28176;SDS011;15461;41.652;9.378;2022-08-14T10:48:39;4.13;;;2.20;;
28176;SDS011;15461;41.652;9.378;2022-08-14T10:51:05;3.17;;;1.95;;
28176;SDS011;15461;41.652;9.378;2022-08-14T10:53:31;5.32;;;2.30;;
28176;SDS011;15461;41.652;9.378;2022-08-14T10:56:02;3.05;;;2.10;;
28176;SDS011;15461;41.652;9.378;2022-08-14T10:58:32;7.45;;;2.00;;
28176;SDS011;15461;41.652;9.378;2022-08-14T11:00:59;3.15;;;2.15;;
28176;SDS011;15461;41.652;9.378;2022-08-14T11:03:41;4.50;;;2.10;;
28176;SDS011;15461;41.652;9.378;2022-08-14T11:06:15;6.68;;;2.22;;
28176;SDS011;15461;41.652;9.378;2022-08-14T11:08:47;2.85;;;2.08;;
28176;SDS011;15461;41.652;9.378;2022-08-14T11:11:13;3.95;;;1.98;;
28176;SDS011;15461;41.652;9.378;2022-08-14T11:13:42;3.15;;;1.88;;
28176;SDS011;15461;41.652;9.378;2022-08-14T11:16:08;2.53;;;2.00;;
28176;SDS011;15461;41.652;9.378;2022-08-14T11:18:35;3.67;;;2.03;;
28176;SDS011;15461;41.652;9.378;2022-08-14T11:21:02;7.25;;;2.33;;
28176;SDS011;15461;41.652;9.378;2022-08-14T11:23:34;3.33;;;2.00;;
28176;SDS011;15461;41.652;9.378;2022-08-14T11:26:03;3.03;;;2.20;;
28176;SDS011;15461;41.652;9.378;2022-08-14T11:28:37;5.13;;;2.38;;
28176;SDS011;15461;41.652;9.378;2022-08-14T11:31:09;5.57;;;2.40;;
28176;SDS011;15461;41.652;9.378;2022-08-14T11:33:39;3.55;;;2.00;;
28176;SDS011;15461;41.652;9.378;2022-08-14T11:36:07;3.30;;;1.80;;
28176;SDS011;15461;41.652;9.378;2022-08-14T11:38:41;2.45;;;2.10;;
28176;SDS011;15461;41.652;9.378;2022-08-14T11:41:10;4.28;;;2.30;;
28176;SDS011;15461;41.652;9.378;2022-08-14T11:43:46;2.63;;;2.00;;
28176;SDS011;15461;41.652;9.378;2022-08-14T11:46:14;5.68;;;2.00;;
28176;SDS011;15461;41.652;9.378;2022-08-14T11:48:52;2.42;;;1.80;;
28176;SDS011;15461;41.652;9.378;2022-08-14T11:51:20;4.47;;;2.08;;
28176;SDS011;15461;41.652;9.378;2022-08-14T11:53:51;4.47;;;2.10;;
28176;SDS011;15461;41.652;9.378;2022-08-14T11:56:19;3.03;;;1.70;;
28176;SDS011;15461;41.652;9.378;2022-08-14T11:58:49;3.03;;;1.80;;
28176;SDS011;15461;41.652;9.378;2022-08-14T12:01:22;4.68;;;2.00;;
28176;SDS011;15461;41.652;9.378;2022-08-14T12:03:51;3.00;;;2.00;;
28176;SDS011;15461;41.652;9.378;2022-08-14T12:06:17;2.78;;;2.05;;
28176;SDS011;15461;41.652;9.378;2022-08-14T12:08:45;3.45;;;1.98;;
28176;SDS011;15461;41.652;9.378;2022-08-14T12:11:12;5.93;;;2.00;;
28176;SDS011;15461;41.652;9.378;2022-08-14T12:13:39;6.38;;;1.95;;
28176;SDS011;15461;41.652;9.378;2022-08-14T12:16:07;3.97;;;1.92;;
28176;SDS011;15461;41.652;9.378;2022-08-14T12:18:36;3.15;;;2.10;;
28176;SDS011;15461;41.652;9.378;2022-08-14T12:23:41;2.58;;;2.05;;
28176;SDS011;15461;41.652;9.378;2022-08-14T12:26:11;5.93;;;2.03;;
28176;SDS011;15461;41.652;9.378;2022-08-14T12:31:13;6.28;;;2.10;;
28176;SDS011;15461;41.652;9.378;2022-08-14T12:33:43;3.90;;;1.98;;
28176;SDS011;15461;41.652;9.378;2022-08-14T12:36:23;5.18;;;2.00;;
28176;SDS011;15461;41.652;9.378;2022-08-14T12:38:49;3.88;;;2.00;;
28176;SDS011;15461;41.652;9.378;2022-08-14T12:41:16;4.57;;;2.00;;
28176;SDS011;15461;41.652;9.378;2022-08-14T12:43:49;2.22;;;1.88;;
28176;SDS011;15461;41.652;9.378;2022-08-14T12:46:31;6.68;;;2.30;;
28176;SDS011;15461;41.652;9.378;2022-08-14T12:49:14;3.97;;;2.03;;
28176;SDS011;15461;41.652;9.378;2022-08-14T12:51:41;2.55;;;1.80;;
28176;SDS011;15461;41.652;9.378;2022-08-14T12:54:16;4.13;;;1.83;;
28176;SDS011;15461;41.652;9.378;2022-08-14T12:56:44;4.22;;;2.15;;
28176;SDS011;15461;41.652;9.378;2022-08-14T12:59:11;4.65;;;2.50;;
28176;SDS011;15461;41.652;9.378;2022-08-14T13:01:39;2.95;;;1.95;;
28176;SDS011;15461;41.652;9.378;2022-08-14T13:04:08;5.63;;;2.20;;
28176;SDS011;15461;41.652;9.378;2022-08-14T13:06:39;6.43;;;1.98;;
28176;SDS011;15461;41.652;9.378;2022-08-14T13:09:14;4.40;;;2.30;;
28176;SDS011;15461;41.652;9.378;2022-08-14T13:11:42;8.05;;;2.10;;
28176;SDS011;15461;41.652;9.378;2022-08-14T13:14:16;5.95;;;2.30;;
28176;SDS011;15461;41.652;9.378;2022-08-14T13:16:46;4.53;;;2.35;;
28176;SDS011;15461;41.652;9.378;2022-08-14T13:19:15;4.32;;;2.10;;
28176;SDS011;15461;41.652;9.378;2022-08-14T13:21:42;4.35;;;2.00;;
28176;SDS011;15461;41.652;9.378;2022-08-14T13:24:11;4.68;;;2.20;;
28176;SDS011;15461;41.652;9.378;2022-08-14T13:26:43;10.75;;;2.20;;
28176;SDS011;15461;41.652;9.378;2022-08-14T13:29:12;7.05;;;2.20;;
28176;SDS011;15461;41.652;9.378;2022-08-14T13:31:41;6.35;;;2.17;;
28176;SDS011;15461;41.652;9.378;2022-08-14T13:34:14;3.17;;;2.00;;
28176;SDS011;15461;41.652;9.378;2022-08-14T13:36:40;3.65;;;2.00;;
28176;SDS011;15461;41.652;9.378;2022-08-14T13:39:06;4.70;;;2.20;;
28176;SDS011;15461;41.652;9.378;2022-08-14T13:41:33;5.47;;;2.53;;
28176;SDS011;15461;41.652;9.378;2022-08-14T13:43:59;4.03;;;2.38;;
28176;SDS011;15461;41.652;9.378;2022-08-14T13:46:26;5.70;;;2.28;;
28176;SDS011;15461;41.652;9.378;2022-08-14T13:48:52;3.92;;;2.25;;
28176;SDS011;15461;41.652;9.378;2022-08-14T13:51:18;3.95;;;2.10;;
28176;SDS011;15461;41.652;9.378;2022-08-14T13:53:50;3.50;;;2.10;;
28176;SDS011;15461;41.652;9.378;2022-08-14T13:56:27;6.15;;;2.35;;
28176;SDS011;15461;41.652;9.378;2022-08-14T13:58:53;7.00;;;2.40;;
28176;SDS011;15461;41.652;9.378;2022-08-14T14:01:23;3.28;;;2.13;;
28176;SDS011;15461;41.652;9.378;2022-08-14T14:03:51;4.25;;;2.20;;
28176;SDS011;15461;41.652;9.378;2022-08-14T14:06:22;6.50;;;2.03;;
28176;SDS011;15461;41.652;9.378;2022-08-14T14:08:50;4.55;;;2.30;;
28176;SDS011;15461;41.652;9.378;2022-08-14T14:11:19;2.15;;;1.70;;
28176;SDS011;15461;41.652;9.378;2022-08-14T14:13:49;4.40;;;2.17;;
28176;SDS011;15461;41.652;9.378;2022-08-14T14:16:16;3.55;;;1.85;;
28176;SDS011;15461;41.652;9.378;2022-08-14T14:18:50;6.90;;;2.30;;
28176;SDS011;15461;41.652;9.378;2022-08-14T14:21:25;4.25;;;1.90;;
28176;SDS011;15461;41.652;9.378;2022-08-14T14:23:52;3.90;;;1.88;;
28176;SDS011;15461;41.652;9.378;2022-08-14T14:26:19;3.40;;;2.00;;
28176;SDS011;15461;41.652;9.378;2022-08-14T14:28:46;5.63;;;2.00;;
28176;SDS011;15461;41.652;9.378;2022-08-14T14:31:19;7.15;;;2.30;;
28176;SDS011;15461;41.652;9.378;2022-08-14T14:36:23;6.60;;;2.17;;
28176;SDS011;15461;41.652;9.378;2022-08-14T14:38:53;4.32;;;2.10;;
28176;SDS011;15461;41.652;9.378;2022-08-14T14:41:22;3.10;;;2.10;;
28176;SDS011;15461;41.652;9.378;2022-08-14T14:43:51;3.53;;;1.90;;
28176;SDS011;15461;41.652;9.378;2022-08-14T14:46:19;3.85;;;2.22;;
28176;SDS011;15461;41.652;9.378;2022-08-14T14:48:46;3.67;;;2.10;;
28176;SDS011;15461;41.652;9.378;2022-08-14T14:51:13;5.47;;;2.10;;
28176;SDS011;15461;41.652;9.378;2022-08-14T14:53:40;3.35;;;2.00;;
28176;SDS011;15461;41.652;9.378;2022-08-14T14:56:07;6.75;;;2.00;;
28176;SDS011;15461;41.652;9.378;2022-08-14T14:58:35;12.65;;;2.22;;
28176;SDS011;15461;41.652;9.378;2022-08-14T15:01:03;5.28;;;2.00;;
28176;SDS011;15461;41.652;9.378;2022-08-14T15:03:30;2.78;;;1.90;;
28176;SDS011;15461;41.652;9.378;2022-08-14T15:05:57;10.35;;;2.17;;
28176;SDS011;15461;41.652;9.378;2022-08-14T15:08:24;4.10;;;2.00;;
28176;SDS011;15461;41.652;9.378;2022-08-14T15:10:50;2.72;;;1.90;;
28176;SDS011;15461;41.652;9.378;2022-08-14T15:13:18;3.47;;;1.95;;
28176;SDS011;15461;41.652;9.378;2022-08-14T15:15:44;5.72;;;2.00;;
28176;SDS011;15461;41.652;9.378;2022-08-14T15:18:10;5.35;;;2.00;;
28176;SDS011;15461;41.652;9.378;2022-08-14T15:20:36;5.18;;;2.17;;
28176;SDS011;15461;41.652;9.378;2022-08-14T15:23:02;4.38;;;2.00;;
28176;SDS011;15461;41.652;9.378;2022-08-14T15:25:29;4.70;;;2.05;;
28176;SDS011;15461;41.652;9.378;2022-08-14T15:27:59;2.88;;;1.83;;
28176;SDS011;15461;41.652;9.378;2022-08-14T15:30:26;6.55;;;2.08;;
28176;SDS011;15461;41.652;9.378;2022-08-14T15:32:53;3.53;;;2.00;;
28176;SDS011;15461;41.652;9.378;2022-08-14T15:35:20;7.75;;;2.00;;